Time;durP1;ratioP1;P1;durP2;ratioP2;P2;SDS_P1;SDS_P2;PMS_P1;PMS_P2;Temp;Humidity;BMP_temperature;BMP_pressure;BME280_temperature;BME280_humidity;BME280_pressure;Samples;Min_cycle;Max_cycle;Signal;HPM_P1;HPM_P2
2023/01/22 00:09:09;;;;;;;0.40;0.40;;;;;;;15.99;69.56;103070.59;20227792;29;20108;-94
2023/01/22 00:19:11;;;;;;;0.45;0.40;;;;;;;16.00;69.55;103069.66;20197125;29;20448;-94
2023/01/22 00:29:13;;;;;;;0.50;0.40;;;;;;;15.94;69.25;103051.13;20227090;29;20072;-94
2023/01/22 00:39:15;;;;;;;0.45;0.43;;;;;;;15.99;69.15;103057.16;20226022;29;20065;-93
2023/01/22 00:49:16;;;;;;;0.60;0.60;;;;;;;15.98;69.43;103065.28;20243356;29;20040;-93
2023/01/22 00:59:18;;;;;;;0.55;0.40;;;;;;;15.99;69.40;103057.16;20140618;29;20052;-93
2023/01/22 01:09:20;;;;;;;0.75;0.50;;;;;;;15.99;69.15;103051.78;20180020;29;20426;-88
2023/01/22 01:19:22;;;;;;;0.30;0.30;;;;;;;15.98;69.01;103042.00;20180912;29;20048;-94
2023/01/22 01:29:24;;;;;;;0.60;0.43;;;;;;;15.99;69.07;103050.91;20178570;29;20056;-95
2023/01/22 01:39:25;;;;;;;0.50;0.40;;;;;;;15.99;69.21;103053.59;20177791;29;20101;-94
2023/01/22 01:49:31;;;;;;;0.60;0.60;;;;;;;15.91;69.12;103027.09;20177370;29;20072;-95
2023/01/22 01:59:34;;;;;;;0.50;0.40;;;;;;;15.98;69.24;103044.69;20224232;29;20052;-94
2023/01/22 02:09:35;;;;;;;0.70;0.60;;;;;;;15.88;69.21;103021.84;20222283;29;20048;-94
2023/01/22 02:19:38;;;;;;;0.70;0.45;;;;;;;15.65;69.23;102973.59;20235278;29;20060;-94
2023/01/22 02:29:40;;;;;;;0.43;0.43;;;;;;;15.62;68.99;102963.00;20252918;29;20052;-94
2023/01/22 02:39:44;;;;;;;1.02;0.52;;;;;;;15.75;69.00;102973.19;20235466;29;20085;-94
2023/01/22 02:49:46;;;;;;;0.50;0.50;;;;;;;15.96;69.01;103019.69;20218251;29;20084;-94
2023/01/22 02:59:49;;;;;;;0.43;0.43;;;;;;;15.65;69.08;102956.63;20234023;29;20044;-94
2023/01/22 03:09:52;;;;;;;0.50;0.40;;;;;;;15.90;68.89;102985.03;20233087;29;20078;-95
2023/01/22 03:30:15;;;;;;;0.50;0.43;;;;;;;15.96;68.87;102990.16;20230556;29;20047;-94
2023/01/22 03:40:17;;;;;;;0.38;0.30;;;;;;;15.74;68.72;102966.06;20214691;29;20057;-95
2023/01/22 03:50:20;;;;;;;0.40;0.40;;;;;;;15.66;68.59;102943.13;20245296;29;20077;-94
2023/01/22 04:00:21;;;;;;;0.40;0.40;;;;;;;15.96;68.60;102987.47;20229880;29;20044;-94
2023/01/22 04:10:24;;;;;;;0.50;0.40;;;;;;;15.69;68.41;102943.91;20229283;29;20048;-94
2023/01/22 04:20:26;;;;;;;0.70;0.40;;;;;;;15.79;68.76;102969.41;20197958;29;20096;-94
2023/01/22 04:30:33;;;;;;;0.65;0.40;;;;;;;15.95;68.44;102997.31;20227360;29;20056;-94
2023/01/22 04:40:53;;;;;;;0.30;0.30;;;;;;;15.57;68.59;102940.00;20227552;29;20040;-95
2023/01/22 04:50:56;;;;;;;0.30;0.30;;;;;;;15.95;68.71;102986.56;20227048;29;20053;-94
2023/01/22 05:01:00;;;;;;;0.37;0.37;;;;;;;15.95;68.38;102994.63;20226631;29;20048;-94
2023/01/22 05:11:02;;;;;;;0.20;0.20;;;;;;;15.95;68.59;102991.09;20210699;29;20056;-94
2023/01/22 05:21:30;;;;;;;0.52;0.40;;;;;;;15.95;68.46;102993.78;20239845;29;20057;-94
2023/01/22 05:31:32;;;;;;;0.30;0.30;;;;;;;15.94;68.44;103002.78;20225214;29;20456;-93
2023/01/22 05:41:36;;;;;;;0.75;0.52;;;;;;;15.94;68.52;102990.22;20224852;29;20045;-95
2023/01/22 05:51:37;;;;;;;0.30;0.30;;;;;;;15.94;68.28;102989.34;20205804;29;20515;-95
2023/01/22 06:01:39;;;;;;;0.20;0.20;;;;;;;15.77;68.50;102982.91;20215319;29;20104;-95
2023/01/22 06:11:42;;;;;;;1.02;0.30;;;;;;;15.93;68.27;103017.16;20240980;29;20068;-92
2023/01/22 06:21:44;;;;;;;0.45;0.40;;;;;;;15.93;68.41;103014.47;20220031;29;20068;-93
2023/01/22 06:31:46;;;;;;;0.40;0.30;;;;;;;15.80;68.09;102990.81;20204389;29;20059;-92
2023/01/22 06:41:51;;;;;;;0.30;0.30;;;;;;;15.77;68.38;102987.41;20197961;29;20053;-94
2023/01/22 06:51:53;;;;;;;0.20;0.20;;;;;;;15.92;68.25;103013.59;20196123;29;20132;-91
2023/01/22 07:01:54;;;;;;;0.28;0.28;;;;;;;15.91;68.34;103009.16;20187781;29;20187;-93
2023/01/22 07:11:59;;;;;;;0.40;0.40;;;;;;;15.91;68.06;103016.34;20180754;29;20070;-94
2023/01/22 07:22:00;;;;;;;0.20;0.20;;;;;;;15.91;68.13;103021.72;20212105;29;20049;-91
2023/01/22 07:32:02;;;;;;;0.40;0.30;;;;;;;15.77;68.20;103007.06;20224440;29;20496;-93
2023/01/22 07:42:03;;;;;;;0.30;0.30;;;;;;;15.90;68.14;103026.22;20208694;29;20532;-94
2023/01/22 07:52:05;;;;;;;0.28;0.20;;;;;;;15.69;68.18;102995.81;20231932;29;20178;-88
2023/01/22 08:02:10;;;;;;;0.30;0.30;;;;;;;15.89;67.99;103029.84;20204770;29;20120;-95
2023/01/22 08:12:12;;;;;;;0.20;0.20;;;;;;;15.89;68.10;103018.22;20210066;29;20450;-94
2023/01/22 08:22:13;;;;;;;0.40;0.40;;;;;;;15.89;68.00;103029.84;20212152;29;20052;-94
2023/01/22 08:32:16;;;;;;;0.75;0.30;;;;;;;15.89;68.00;103032.53;20193425;29;20444;-92
2023/01/22 08:42:17;;;;;;;0.38;0.20;;;;;;;15.81;68.04;103030.16;20172022;29;20054;-93
2023/01/22 08:52:19;;;;;;;0.20;0.20;;;;;;;15.89;68.02;103040.59;20169211;29;20045;-94
2023/01/22 09:02:20;;;;;;;0.20;0.20;;;;;;;15.90;67.84;103041.44;20176526;29;20056;-94
2023/01/22 09:12:22;;;;;;;0.20;0.20;;;;;;;15.89;67.88;103048.66;20202628;29;20075;-93
2023/01/22 09:22:24;;;;;;;0.60;0.20;;;;;;;15.89;67.97;103050.44;20200020;29;20058;-91
2023/01/22 09:32:25;;;;;;;0.40;0.40;;;;;;;15.90;68.01;103071.00;20155360;29;20052;-87
2023/01/22 09:42:36;;;;;;;0.30;0.30;;;;;;;15.89;67.95;103072.81;20180018;29;20060;-87
2023/01/22 09:52:38;;;;;;;0.20;0.20;;;;;;;15.91;68.02;103081.69;20166815;29;20609;-89
2023/01/22 10:02:44;;;;;;;0.22;0.22;;;;;;;15.91;68.15;103086.19;20188026;29;20056;-89
2023/01/22 10:12:52;;;;;;;0.35;0.30;;;;;;;16.01;69.51;103083.94;20212610;29;20111;-89
2023/01/22 10:22:55;;;;;;;2.42;0.50;;;;;;;16.08;70.66;103062.09;20201596;29;20052;-91
2023/01/22 10:33:05;;;;;;;4.93;0.80;;;;;;;16.16;72.42;103069.81;20198791;29;20407;-88
2023/01/22 10:43:14;;;;;;;3.45;0.80;;;;;;;16.16;73.88;103063.56;20185974;29;20061;-94
2023/01/22 10:53:19;;;;;;;3.28;0.68;;;;;;;16.02;73.61;103045.38;20184734;29;20141;-91
2023/01/22 11:03:28;;;;;;;;;;;;;;;16.09;73.52;103057.59;20196182;29;20083;-90
2023/01/22 11:14:04;;;;;;;1.70;0.50;;;;;;;16.06;73.36;103052.34;20207281;29;20025;-90
2023/01/22 11:24:13;;;;;;;2.03;0.60;;;;;;;15.89;73.32;103037.00;20195334;29;20040;-91
2023/01/22 11:35:07;;;;;;;0.75;0.55;;;;;;;16.02;73.02;103046.28;20201004;29;20053;-89
2023/01/22 11:45:51;;;;;;;1.25;0.55;;;;;;;16.01;72.82;103044.53;20161905;29;20049;-89
2023/01/22 11:55:59;;;;;;;2.85;0.60;;;;;;;16.00;72.83;103037.41;20201319;29;20056;-89
2023/01/22 12:06:11;;;;;;;1.27;0.50;;;;;;;16.00;72.63;103037.41;20183363;29;20086;-91
2023/01/22 12:16:19;;;;;;;1.73;0.60;;;;;;;16.00;72.34;103032.03;20216423;29;20056;-87
2023/01/22 12:26:27;;;;;;;2.03;0.45;;;;;;;15.92;72.45;103026.16;20193898;29;20067;-90
2023/01/22 12:36:31;;;;;;;1.55;0.60;;;;;;;15.99;72.32;103026.72;20175027;29;20056;-90
2023/01/22 12:46:53;;;;;;;1.25;0.55;;;;;;;15.98;72.08;103025.88;20186575;29;20060;-91
2023/01/22 12:57:31;;;;;;;1.08;0.73;;;;;;;15.99;72.03;103030.31;20170089;29;20136;-90
2023/01/22 13:07:36;;;;;;;1.08;0.50;;;;;;;15.99;72.17;103024.94;20113899;29;20656;-91
2023/01/22 13:17:39;;;;;;;0.40;0.40;;;;;;;15.99;71.92;103021.34;20233544;29;20132;-92
2023/01/22 13:27:45;;;;;;;1.45;0.40;;;;;;;15.99;72.00;103024.94;20231499;29;20577;-93
2023/01/22 13:37:49;;;;;;;0.30;0.30;;;;;;;15.83;71.99;103007.72;20232724;29;20591;-93
2023/01/22 13:47:56;;;;;;;0.55;0.35;;;;;;;15.98;71.77;103023.19;20211738;29;20400;-89
2023/01/22 13:58:03;;;;;;;0.45;0.30;;;;;;;16.00;71.73;103033.84;20213636;29;20056;-89
2023/01/22 14:08:07;;;;;;;0.63;0.30;;;;;;;16.00;71.61;103033.84;20213043;29;20064;-93
2023/01/22 14:18:16;;;;;;;0.82;0.43;;;;;;;15.98;71.57;103039.31;20206329;29;20056;-91
2023/01/22 14:28:20;;;;;;;0.98;0.40;;;;;;;15.97;71.53;103036.69;20231312;29;20060;-89
2023/01/22 14:38:22;;;;;;;0.43;0.40;;;;;;;16.00;71.68;103052.66;20172896;29;20063;-91
2023/01/22 14:48:24;;;;;;;0.73;0.57;;;;;;;15.98;71.37;103060.78;20191669;29;20072;-92
2023/01/22 14:58:25;;;;;;;1.17;0.50;;;;;;;16.00;71.28;103066.09;20204198;29;20188;-90
2023/01/22 15:08:27;;;;;;;0.60;0.30;;;;;;;15.99;71.50;103069.72;20188872;29;20132;-95
2023/01/22 15:18:28;;;;;;;0.40;0.40;;;;;;;15.64;71.47;103003.22;20209269;29;20112;-89
2023/01/22 15:28:30;;;;;;;0.40;0.40;;;;;;;15.99;71.25;103072.41;20208816;29;20141;-89
2023/01/22 15:38:32;;;;;;;0.43;0.38;;;;;;;15.97;71.04;103064.44;20189594;29;20056;-93
2023/01/22 15:48:33;;;;;;;0.30;0.30;;;;;;;15.85;71.14;103033.59;20177859;29;20064;-89
2023/01/22 15:58:38;;;;;;;0.83;0.43;;;;;;;15.99;71.12;103065.22;20208674;29;20084;-91
2023/01/22 16:08:40;;;;;;;0.30;0.30;;;;;;;15.89;71.09;103056.72;20202325;29;20160;-93
2023/01/22 16:18:42;;;;;;;0.57;0.30;;;;;;;15.85;70.92;103040.75;20216507;29;20452;-95
2023/01/22 16:28:45;;;;;;;0.95;0.50;;;;;;;16.00;70.99;103082.19;20218491;29;20075;-83
2023/01/22 16:38:47;;;;;;;0.93;0.40;;;;;;;16.01;71.07;103092.88;20202663;29;20403;-88
2023/01/22 16:48:54;;;;;;;0.30;0.30;;;;;;;15.84;70.87;103068.56;20189773;29;20167;-92
2023/01/22 16:58:56;;;;;;;0.85;0.40;;;;;;;15.83;70.88;103069.50;20178212;29;20060;-88
2023/01/22 17:08:58;;;;;;;0.25;0.25;;;;;;;16.01;70.67;103092.00;20172199;29;20059;-86
2023/01/22 17:19:01;;;;;;;0.70;0.30;;;;;;;15.90;70.87;103084.44;20183709;29;20219;-89
2023/01/22 17:29:03;;;;;;;0.40;0.40;;;;;;;15.85;71.09;103086.41;20203760;29;20059;-86
2023/01/22 17:39:06;;;;;;;0.75;0.30;;;;;;;16.00;70.91;103118.00;20196424;29;20080;-86
2023/01/22 17:49:10;;;;;;;0.50;0.30;;;;;;;16.01;70.72;103121.56;20206425;29;20060;-88
2023/01/22 17:59:11;;;;;;;0.77;0.40;;;;;;;15.86;70.63;103105.16;20216957;29;20064;-85
2023/01/22 18:09:13;;;;;;;0.73;0.40;;;;;;;15.99;70.61;103137.75;20217782;29;20052;-86
2023/01/22 18:19:17;;;;;;;0.30;0.30;;;;;;;16.00;70.67;103144.88;20230570;29;20077;-95
2023/01/22 18:29:18;;;;;;;0.50;0.40;;;;;;;14.77;70.52;102991.72;20505829;23;20131;-95
2023/01/22 18:39:21;;;;;;;0.40;0.30;;;;;;;16.00;70.63;103152.06;20248628;29;20052;-93
2023/01/22 18:49:23;;;;;;;0.30;0.30;;;;;;;13.84;70.38;102796.41;20367370;23;20056;-96
2023/01/22 18:59:24;;;;;;;0.93;0.40;;;;;;;16.01;70.57;103151.09;20233991;29;20073;-94
2023/01/22 19:09:26;;;;;;;0.40;0.40;;;;;;;16.02;70.63;103159.13;20645691;23;20040;-86
2023/01/22 19:19:28;;;;;;;0.45;0.40;;;;;;;16.02;70.44;103164.50;20305914;29;20054;-86
2023/01/22 19:29:29;;;;;;;0.40;0.38;;;;;;;15.97;70.40;103150.41;20319691;29;20411;-87
2023/01/22 19:39:32;;;;;;;0.60;0.30;;;;;;;16.02;70.55;103164.50;20318678;29;20103;-86
2023/01/22 19:49:33;;;;;;;0.65;0.40;;;;;;;16.01;70.45;103157.38;20317217;29;20402;-86
2023/01/22 19:59:35;;;;;;;0.95;0.50;;;;;;;15.86;70.22;103145.47;20316248;29;20044;-87
2023/01/22 20:09:36;;;;;;;0.50;0.40;;;;;;;16.01;70.53;103176.19;20315348;29;20056;-86
2023/01/22 20:19:38;;;;;;;0.30;0.30;;;;;;;16.01;70.17;103194.09;20315122;29;20060;-85
2023/01/22 20:29:40;;;;;;;0.40;0.32;;;;;;;16.00;70.33;103201.31;20314360;29;20052;-84
2023/01/22 20:39:42;;;;;;;0.82;0.40;;;;;;;15.89;70.43;103187.44;20297708;29;20091;-87
2023/01/22 20:49:43;;;;;;;0.30;0.30;;;;;;;16.01;70.09;103200.38;20297012;29;20131;-86
2023/01/22 20:59:45;;;;;;;0.85;0.47;;;;;;;16.00;70.14;103204.00;20296276;29;20508;-87
2023/01/22 21:09:48;;;;;;;0.57;0.57;;;;;;;15.88;70.19;103191.06;20280673;29;20044;-86
2023/01/22 21:19:50;;;;;;;1.15;0.50;;;;;;;15.69;70.05;103167.69;20318345;29;20573;-86
2023/01/22 21:29:54;;;;;;;0.63;0.40;;;;;;;16.00;70.05;103209.38;20310202;29;20056;-86
2023/01/22 21:39:55;;;;;;;0.40;0.40;;;;;;;15.72;70.14;103161.31;20309804;29;20052;-86
2023/01/22 21:49:57;;;;;;;0.70;0.40;;;;;;;16.00;69.93;103209.38;20326525;29;20491;-87
2023/01/22 21:59:58;;;;;;;0.47;0.40;;;;;;;15.51;69.87;103138.00;20292685;29;20133;-87
2023/01/22 22:10:00;;;;;;;0.43;0.35;;;;;;;15.99;69.92;103204.94;20325139;29;20506;-86
2023/01/22 22:20:03;;;;;;;0.52;0.30;;;;;;;15.70;69.60;103168.56;20323904;29;20403;-86
2023/01/22 22:30:06;;;;;;;0.90;0.52;;;;;;;15.78;69.72;103191.44;20322232;29;20149;-86
2023/01/22 22:40:09;;;;;;;0.30;0.30;;;;;;;15.91;69.85;103223.22;20305857;29;20051;-86
2023/01/22 22:50:11;;;;;;;0.75;0.30;;;;;;;16.00;69.55;103241.59;20305618;29;20095;-86
2023/01/22 23:00:13;;;;;;;0.35;0.28;;;;;;;15.99;69.78;103247.91;20321429;29;20537;-86
2023/01/22 23:10:27;;;;;;;0.60;0.35;;;;;;;16.00;69.65;103251.47;20303894;29;20067;-86
2023/01/22 23:20:29;;;;;;;0.30;0.30;;;;;;;15.95;69.39;103262.44;20319222;29;20584;-86
2023/01/22 23:30:31;;;;;;;0.30;0.30;;;;;;;15.99;69.64;103258.66;20318841;29;20055;-86
2023/01/22 23:40:33;;;;;;;0.22;0.22;;;;;;;15.92;69.41;103244.63;20317017;29;20052;-86
2023/01/22 23:50:34;;;;;;;0.47;0.20;;;;;;;15.98;69.40;103247.97;20316606;29;20063;-86
